createdAt,value
2018-05-04T00:00:54.218Z,3.20
2018-05-04T00:03:19.970Z,3.50
2018-05-04T00:05:45.738Z,3.20
2018-05-04T00:08:11.498Z,3.20
2018-05-04T00:10:37.426Z,4.20
2018-05-04T00:13:03.206Z,3.17
2018-05-04T00:15:28.983Z,3.40
2018-05-04T00:17:54.745Z,3.27
2018-05-04T00:20:20.503Z,4.30
2018-05-04T00:22:46.284Z,3.47
2018-05-04T00:25:12.051Z,3.47
2018-05-04T00:27:37.814Z,3.37
2018-05-04T00:30:03.620Z,3.20
2018-05-04T00:32:29.482Z,3.37
2018-05-04T00:34:55.495Z,4.20
2018-05-04T00:37:21.274Z,3.30
2018-05-04T00:39:47.035Z,3.27
2018-05-04T00:42:12.843Z,4.13
2018-05-04T00:44:38.623Z,4.63
2018-05-04T00:47:04.373Z,3.87
2018-05-04T00:49:30.308Z,3.80
2018-05-04T00:51:56.098Z,3.73
2018-05-04T00:54:22.819Z,3.97
2018-05-04T00:56:48.585Z,4.07
2018-05-04T00:59:14.407Z,4.10
2018-05-04T01:01:40.174Z,3.80
2018-05-04T01:04:05.934Z,4.40
2018-05-04T01:06:31.712Z,3.50
2018-05-04T01:08:57.475Z,3.93
2018-05-04T01:11:23.247Z,3.97
2018-05-04T01:13:49.009Z,5.20
2018-05-04T01:16:14.780Z,4.50
2018-05-04T01:18:40.534Z,3.70
2018-05-04T01:21:06.367Z,4.20
2018-05-04T01:23:32.119Z,3.70
2018-05-04T01:25:57.919Z,4.10
2018-05-04T01:28:23.695Z,4.40
2018-05-04T01:30:49.467Z,3.33
2018-05-04T01:33:15.213Z,3.80
2018-05-04T01:35:41.035Z,4.30
2018-05-04T01:38:06.796Z,4.70
2018-05-04T01:40:32.610Z,4.20
2018-05-04T01:42:58.420Z,3.80
2018-05-04T01:45:24.180Z,3.97
2018-05-04T01:47:50.167Z,4.23
2018-05-04T01:50:15.955Z,4.00
2018-05-04T01:52:41.703Z,4.90
2018-05-04T01:55:07.479Z,3.80
2018-05-04T01:57:33.232Z,4.07
2018-05-04T01:59:59.027Z,3.80
2018-05-04T02:02:24.792Z,3.70
2018-05-04T02:04:50.667Z,4.27
2018-05-04T02:07:16.441Z,3.93
2018-05-04T02:09:42.189Z,4.60
2018-05-04T02:12:07.939Z,3.83
2018-05-04T02:14:33.702Z,4.00
2018-05-04T02:16:59.464Z,3.97
2018-05-04T02:19:25.228Z,4.03
2018-05-04T02:21:51.000Z,4.23
2018-05-04T02:24:16.766Z,4.13
2018-05-04T02:26:42.564Z,3.57
2018-05-04T02:29:08.327Z,3.90
2018-05-04T02:31:34.086Z,3.90
2018-05-04T02:34:00.178Z,4.97
2018-05-04T02:36:25.964Z,3.62
2018-05-04T02:38:51.744Z,4.00
2018-05-04T02:41:17.531Z,3.70
2018-05-04T02:43:43.296Z,4.57
2018-05-04T02:46:09.050Z,3.73
2018-05-04T02:48:34.853Z,3.63
2018-05-04T02:51:00.624Z,3.83
2018-05-04T02:53:26.385Z,4.43
2018-05-04T02:55:52.262Z,4.10
2018-05-04T02:58:18.048Z,4.23
2018-05-04T03:00:43.836Z,4.10
2018-05-04T03:03:09.602Z,3.47
2018-05-04T03:05:35.379Z,3.37
2018-05-04T03:08:01.127Z,5.30
2018-05-04T03:10:26.882Z,4.30
2018-05-04T03:12:52.643Z,4.30
2018-05-04T03:15:18.388Z,4.40
2018-05-04T03:17:44.549Z,4.60
2018-05-04T03:20:10.302Z,4.20
2018-05-04T03:22:36.064Z,3.93
2018-05-04T03:25:01.816Z,4.10
2018-05-04T03:27:27.602Z,4.70
2018-05-04T03:29:53.364Z,6.17
2018-05-04T03:32:19.156Z,4.30
2018-05-04T03:34:44.911Z,4.50
2018-05-04T03:37:10.688Z,4.97
2018-05-04T03:39:36.451Z,4.60
2018-05-04T03:42:02.223Z,4.50
2018-05-04T03:44:27.983Z,6.03
2018-05-04T03:46:53.762Z,6.33
2018-05-04T03:49:19.562Z,5.30
2018-05-04T03:51:45.584Z,5.73
2018-05-04T03:54:11.333Z,4.50
2018-05-04T03:56:37.170Z,4.97
2018-05-04T03:59:15.276Z,5.23
2018-05-04T04:01:53.282Z,5.47
2018-05-04T04:04:19.039Z,5.15
2018-05-04T04:06:44.799Z,5.77
2018-05-04T04:09:10.552Z,5.57
2018-05-04T04:11:36.322Z,5.60
2018-05-04T04:14:02.067Z,5.10
2018-05-04T04:16:27.824Z,5.77
2018-05-04T04:18:53.587Z,5.50
2018-05-04T04:21:19.320Z,5.67
2018-05-04T04:23:45.084Z,4.70
2018-05-04T04:26:10.848Z,5.13
2018-05-04T04:28:36.611Z,5.00
2018-05-04T04:31:02.355Z,5.83
2018-05-04T04:33:28.163Z,5.30
2018-05-04T04:35:53.944Z,5.47
2018-05-04T04:38:19.754Z,5.20
2018-05-04T04:40:45.507Z,5.03
2018-05-04T04:43:11.271Z,6.93
2018-05-04T04:45:37.118Z,5.60
2018-05-04T04:48:02.903Z,6.83
2018-05-04T04:50:28.650Z,6.40
2018-05-04T04:52:54.400Z,6.40
2018-05-04T04:55:20.191Z,5.30
2018-05-04T04:57:46.039Z,5.10
2018-05-04T05:00:11.796Z,6.10
2018-05-04T05:02:37.567Z,5.30
2018-05-04T05:05:03.332Z,4.50
2018-05-04T05:07:29.103Z,4.77
2018-05-04T05:09:54.838Z,4.50
2018-05-04T05:12:20.864Z,4.20
2018-05-04T05:14:46.631Z,4.25
2018-05-04T05:17:12.390Z,3.87
2018-05-04T05:19:38.152Z,3.90
2018-05-04T05:22:03.996Z,3.70
2018-05-04T05:24:29.764Z,4.47
2018-05-04T05:26:55.535Z,3.97
2018-05-04T05:29:21.344Z,4.27
2018-05-04T05:31:47.107Z,3.70
2018-05-04T05:34:12.867Z,4.63
2018-05-04T05:36:38.635Z,3.80
2018-05-04T05:39:04.396Z,3.40
2018-05-04T05:41:30.180Z,4.10
2018-05-04T05:43:55.948Z,3.50
2018-05-04T05:46:21.796Z,3.57
2018-05-04T05:48:47.555Z,3.70
2018-05-04T05:51:13.315Z,3.20
2018-05-04T05:53:39.067Z,4.17
2018-05-04T05:56:04.941Z,5.03
2018-05-04T05:58:30.729Z,4.63
2018-05-04T06:00:56.484Z,4.73
2018-05-04T06:03:22.390Z,4.90
2018-05-04T06:05:48.134Z,5.30
2018-05-04T06:08:13.903Z,4.53
2018-05-04T06:10:39.675Z,4.57
2018-05-04T06:13:05.453Z,4.57
2018-05-04T06:15:31.199Z,4.03
2018-05-04T06:17:56.980Z,3.80
2018-05-04T06:20:22.753Z,3.90
2018-05-04T06:22:48.518Z,4.90
2018-05-04T06:25:14.357Z,4.60
2018-05-04T06:27:40.121Z,4.20
2018-05-04T06:30:05.898Z,4.80
2018-05-04T06:32:31.631Z,5.10
2018-05-04T06:34:57.549Z,4.80
2018-05-04T06:37:23.291Z,4.10
2018-05-04T06:39:49.065Z,4.00
2018-05-04T06:42:15.140Z,4.00
2018-05-04T06:44:40.894Z,5.25
2018-05-04T06:47:06.671Z,4.10
2018-05-04T06:49:32.708Z,3.47
2018-05-04T06:51:58.459Z,4.40
2018-05-04T06:54:24.243Z,2.67
2018-05-04T06:56:50.404Z,3.27
2018-05-04T06:59:16.228Z,3.72
2018-05-04T07:01:42.000Z,2.93
2018-05-04T07:04:07.796Z,2.57
2018-05-04T07:06:33.555Z,3.10
2018-05-04T07:08:59.349Z,2.70
2018-05-04T07:11:25.136Z,3.30
2018-05-04T07:13:50.911Z,3.20
2018-05-04T07:16:16.703Z,2.37
2018-05-04T07:18:42.561Z,2.97
2018-05-04T07:21:08.386Z,2.90
2018-05-04T07:23:34.179Z,3.10
2018-05-04T07:26:00.017Z,3.03
2018-05-04T07:28:25.807Z,2.60
2018-05-04T07:30:51.589Z,3.50
2018-05-04T07:33:17.681Z,2.40
2018-05-04T07:35:43.471Z,3.08
2018-05-04T07:38:09.239Z,2.27
2018-05-04T07:40:35.012Z,4.10
2018-05-04T07:43:00.770Z,3.80
2018-05-04T07:45:26.740Z,3.33
2018-05-04T07:47:52.510Z,2.97
2018-05-04T07:50:18.296Z,3.07
2018-05-04T07:52:44.040Z,2.53
2018-05-04T07:55:09.868Z,3.13
2018-05-04T07:57:35.946Z,2.53
2018-05-04T08:00:01.723Z,2.55
2018-05-04T08:02:27.475Z,3.13
2018-05-04T08:04:53.278Z,3.07
2018-05-04T08:07:19.064Z,1.70
2018-05-04T08:09:44.875Z,3.30
2018-05-04T08:12:10.631Z,2.50
2018-05-04T08:14:36.448Z,2.77
2018-05-04T08:17:02.232Z,2.63
2018-05-04T08:19:27.993Z,2.93
2018-05-04T08:21:53.803Z,2.80
2018-05-04T08:24:19.582Z,3.13
2018-05-04T08:26:45.604Z,3.03
2018-05-04T08:29:11.348Z,2.90
2018-05-04T08:31:37.195Z,2.80
2018-05-04T08:34:02.925Z,3.00
2018-05-04T08:36:28.704Z,3.23
2018-05-04T08:38:54.464Z,3.63
2018-05-04T08:41:20.241Z,2.90
2018-05-04T08:43:46.011Z,3.13
2018-05-04T08:46:11.775Z,3.17
2018-05-04T08:48:37.564Z,2.93
2018-05-04T08:51:03.457Z,3.73
2018-05-04T08:53:29.114Z,2.63
2018-05-04T08:55:54.869Z,2.10
2018-05-04T08:58:20.904Z,2.63
2018-05-04T09:00:46.701Z,2.80
2018-05-04T09:03:12.459Z,2.67
2018-05-04T09:05:38.291Z,2.27
2018-05-04T09:08:03.995Z,3.53
2018-05-04T09:10:29.811Z,2.60
2018-05-04T09:12:55.909Z,2.57
2018-05-04T09:15:21.695Z,1.90
2018-05-04T09:17:47.455Z,2.27
2018-05-04T09:23:09.673Z,2.70
2018-05-04T09:25:35.444Z,1.57
2018-05-04T09:28:01.228Z,2.10
2018-05-04T09:30:27.024Z,1.97
2018-05-04T09:32:52.816Z,2.00
2018-05-04T09:35:18.578Z,2.20
2018-05-04T09:37:44.358Z,2.00
2018-05-04T09:40:10.120Z,1.97
2018-05-04T09:42:35.911Z,2.43
2018-05-04T09:45:01.687Z,1.90
2018-05-04T09:47:27.470Z,2.53
2018-05-04T09:49:53.244Z,2.43
2018-05-04T09:52:19.048Z,2.70
2018-05-04T09:54:44.804Z,2.47
2018-05-04T09:57:10.616Z,2.50
2018-05-04T09:59:36.823Z,3.07
2018-05-04T10:02:02.540Z,1.87
2018-05-04T10:04:28.315Z,2.73
2018-05-04T10:06:54.056Z,2.40
2018-05-04T10:09:19.819Z,2.57
2018-05-04T10:11:45.615Z,2.90
2018-05-04T10:14:11.367Z,3.40
2018-05-04T10:16:37.403Z,3.00
2018-05-04T10:19:03.172Z,3.47
2018-05-04T10:21:28.927Z,3.60
2018-05-04T10:23:54.726Z,2.83
2018-05-04T10:26:20.503Z,2.57
2018-05-04T10:28:46.271Z,2.70
2018-05-04T10:31:12.003Z,3.10
2018-05-04T10:33:37.767Z,3.77
2018-05-04T10:36:03.538Z,3.20
2018-05-04T10:38:29.416Z,2.60
2018-05-04T10:40:55.117Z,2.90
2018-05-04T10:43:20.880Z,3.07
2018-05-04T10:45:46.640Z,2.90
2018-05-04T10:48:12.416Z,2.40
2018-05-04T10:50:38.171Z,2.30
2018-05-04T10:53:03.962Z,2.23
2018-05-04T10:55:29.720Z,3.10
2018-05-04T10:57:55.691Z,2.70
2018-05-04T11:00:21.460Z,2.53
2018-05-04T11:02:47.284Z,2.30
2018-05-04T11:05:13.318Z,2.00
2018-05-04T11:07:39.501Z,2.60
2018-05-04T11:10:05.276Z,2.30
2018-05-04T11:12:31.080Z,2.63
2018-05-04T11:14:56.839Z,2.63
2018-05-04T11:17:22.877Z,2.90
2018-05-04T11:19:48.631Z,2.73
2018-05-04T11:22:14.395Z,2.37
2018-05-04T11:24:40.156Z,2.80
2018-05-04T11:27:05.935Z,2.10
2018-05-04T11:29:31.671Z,1.97
2018-05-04T11:31:57.451Z,2.97
2018-05-04T11:34:23.292Z,2.00
2018-05-04T11:36:49.035Z,2.63
2018-05-04T11:39:14.828Z,2.77
2018-05-04T11:41:40.599Z,2.23
2018-05-04T11:44:06.371Z,2.40
2018-05-04T11:46:32.200Z,2.37
2018-05-04T11:48:57.976Z,3.00
2018-05-04T11:51:23.732Z,2.57
2018-05-04T11:53:49.531Z,2.30
2018-05-04T11:56:15.288Z,2.20
2018-05-04T11:58:41.103Z,2.30
2018-05-04T12:01:06.847Z,2.17
2018-05-04T12:03:32.673Z,2.07
2018-05-04T12:05:58.432Z,2.57
2018-05-04T12:08:24.239Z,1.80
2018-05-04T12:10:50.070Z,2.20
2018-05-04T12:13:15.778Z,2.27
2018-05-04T12:15:41.520Z,1.73
2018-05-04T12:18:07.323Z,2.37
2018-05-04T12:20:33.097Z,2.10
2018-05-04T12:22:58.859Z,1.63
2018-05-04T12:25:24.612Z,1.63
2018-05-04T12:27:50.374Z,1.80
2018-05-04T12:30:16.130Z,1.60
2018-05-04T12:32:48.892Z,2.43
2018-05-04T12:35:14.647Z,2.10
2018-05-04T12:37:40.399Z,1.60
2018-05-04T12:40:06.210Z,1.60
2018-05-04T12:42:32.039Z,2.83
2018-05-04T12:44:57.797Z,1.53
2018-05-04T12:47:23.569Z,1.87
2018-05-04T12:49:49.331Z,2.10
2018-05-04T12:52:15.094Z,2.83
2018-05-04T12:54:41.924Z,2.47
2018-05-04T12:57:06.675Z,2.10
2018-05-04T12:59:32.454Z,2.30
2018-05-04T13:01:58.233Z,1.80
2018-05-04T13:04:24.063Z,2.53
2018-05-04T13:06:49.770Z,2.37
2018-05-04T13:09:15.547Z,2.50
2018-05-04T13:11:41.311Z,2.37
2018-05-04T13:14:07.084Z,2.60
2018-05-04T13:16:32.843Z,2.57
2018-05-04T13:18:58.634Z,2.60
2018-05-04T13:21:24.391Z,3.63
2018-05-04T13:23:50.170Z,2.93
2018-05-04T13:26:15.928Z,2.27
2018-05-04T13:28:41.705Z,2.60
2018-05-04T13:31:07.444Z,3.13
2018-05-04T13:33:33.237Z,2.30
2018-05-04T13:35:58.992Z,2.50
2018-05-04T13:38:24.759Z,3.00
2018-05-04T13:40:51.008Z,2.43
2018-05-04T13:43:16.792Z,2.90
2018-05-04T13:45:42.567Z,2.67
2018-05-04T13:48:08.348Z,1.90
2018-05-04T13:50:34.097Z,2.80
2018-05-04T13:52:59.876Z,2.40
2018-05-04T13:55:25.640Z,2.50
2018-05-04T13:57:51.408Z,3.13
2018-05-04T14:00:17.207Z,2.80
2018-05-04T14:02:42.958Z,2.23
2018-05-04T14:05:08.727Z,2.43
2018-05-04T14:07:34.503Z,2.97
2018-05-04T14:10:00.287Z,2.83
2018-05-04T14:12:26.077Z,3.23
2018-05-04T14:14:51.858Z,3.70
2018-05-04T14:17:17.598Z,3.87
2018-05-04T14:19:43.422Z,2.60
2018-05-04T14:22:09.182Z,2.47
2018-05-04T14:24:34.948Z,3.57
2018-05-04T14:27:00.703Z,2.30
2018-05-04T14:29:26.472Z,2.33
2018-05-04T14:31:52.211Z,2.70
2018-05-04T14:34:17.988Z,2.27
2018-05-04T14:36:43.731Z,1.93
2018-05-04T14:39:09.489Z,2.30
2018-05-04T14:41:35.295Z,2.23
2018-05-04T14:44:01.088Z,2.40
2018-05-04T14:46:26.868Z,2.40
2018-05-04T14:48:52.663Z,2.47
2018-05-04T14:51:18.442Z,3.40
2018-05-04T14:53:44.250Z,2.80
2018-05-04T14:56:10.043Z,2.53
2018-05-04T14:58:35.992Z,2.30
2018-05-04T15:01:01.745Z,2.47
2018-05-04T15:03:27.499Z,2.43
2018-05-04T15:05:53.289Z,1.90
2018-05-04T15:08:19.031Z,2.20
2018-05-04T15:10:44.814Z,2.13
2018-05-04T15:13:10.568Z,2.73
2018-05-04T15:15:36.365Z,2.47
2018-05-04T15:18:02.258Z,2.67
2018-05-04T15:20:27.954Z,3.00
2018-05-04T15:22:53.881Z,2.70
2018-05-04T15:25:19.668Z,2.80
2018-05-04T15:27:45.403Z,3.03
2018-05-04T15:30:11.175Z,2.83
2018-05-04T15:32:36.939Z,3.07
2018-05-04T15:35:02.719Z,3.63
2018-05-04T15:37:28.464Z,2.70
2018-05-04T15:39:54.251Z,3.47
2018-05-04T15:42:20.003Z,3.03
2018-05-04T15:44:45.770Z,2.70
2018-05-04T15:47:11.589Z,2.67
2018-05-04T15:49:37.340Z,2.80
2018-05-04T15:52:03.116Z,2.70
2018-05-04T15:54:28.905Z,3.77
2018-05-04T15:56:54.642Z,3.00
2018-05-04T15:59:20.491Z,3.00
2018-05-04T16:01:49.885Z,3.77
2018-05-04T16:04:15.644Z,2.70
2018-05-04T16:06:41.679Z,2.80
2018-05-04T16:09:07.431Z,3.10
2018-05-04T16:11:33.211Z,3.00
2018-05-04T16:13:58.964Z,2.40
2018-05-04T16:16:24.751Z,2.67
2018-05-04T16:18:50.497Z,2.77
2018-05-04T16:21:16.284Z,2.70
2018-05-04T16:23:42.050Z,1.90
2018-05-04T16:26:07.819Z,1.77
2018-05-04T16:28:33.561Z,3.03
2018-05-04T16:30:59.358Z,2.67
2018-05-04T16:33:25.103Z,3.03
2018-05-04T16:35:50.864Z,2.93
2018-05-04T16:38:16.611Z,3.03
2018-05-04T16:40:42.386Z,3.27
2018-05-04T16:43:08.139Z,2.53
2018-05-04T16:45:33.923Z,2.80
2018-05-04T16:48:05.756Z,2.40
2018-05-04T16:50:31.825Z,2.10
2018-05-04T16:52:57.528Z,2.30
2018-05-04T16:55:23.311Z,2.20
2018-05-04T16:57:49.099Z,1.80
2018-05-04T17:00:14.903Z,2.80
2018-05-04T17:02:40.674Z,1.97
2018-05-04T17:05:06.454Z,1.83
2018-05-04T17:07:32.226Z,1.50
2018-05-04T17:09:58.077Z,2.07
2018-05-04T17:12:23.847Z,2.00
2018-05-04T17:14:49.767Z,2.07
2018-05-04T17:17:15.539Z,1.70
2018-05-04T17:19:41.319Z,1.93
2018-05-04T17:22:07.131Z,1.23
2018-05-04T17:24:32.909Z,1.60
2018-05-04T17:26:58.672Z,1.17
2018-05-04T17:29:24.446Z,2.13
2018-05-04T17:31:50.284Z,1.60
2018-05-04T17:34:16.042Z,1.30
2018-05-04T17:36:41.831Z,1.30
2018-05-04T17:39:07.604Z,1.53
2018-05-04T17:41:33.376Z,1.63
2018-05-04T17:43:59.121Z,1.53
2018-05-04T17:46:24.935Z,1.73
2018-05-04T17:48:50.695Z,1.30
2018-05-04T17:51:16.599Z,1.17
2018-05-04T17:53:42.362Z,1.37
2018-05-04T17:56:08.151Z,2.40
2018-05-04T17:58:34.041Z,2.27
2018-05-04T18:00:59.832Z,1.67
2018-05-04T18:03:25.599Z,1.70
2018-05-04T18:05:51.415Z,1.43
2018-05-04T18:08:17.168Z,1.80
2018-05-04T18:10:42.924Z,2.10
2018-05-04T18:13:08.715Z,2.67
2018-05-04T18:15:34.499Z,2.20
2018-05-04T18:18:00.253Z,3.27
2018-05-04T18:20:26.024Z,3.10
2018-05-04T18:22:51.775Z,2.70
2018-05-04T18:25:17.563Z,2.30
2018-05-04T18:27:43.309Z,3.10
2018-05-04T18:30:09.078Z,3.10
2018-05-04T18:32:34.823Z,2.90
2018-05-04T18:35:00.594Z,2.67
2018-05-04T18:37:26.368Z,2.97
2018-05-04T18:39:59.108Z,3.20
2018-05-04T18:42:24.895Z,2.80
2018-05-04T18:44:50.653Z,3.33
2018-05-04T18:47:16.479Z,2.93
2018-05-04T18:49:42.252Z,3.00
2018-05-04T18:52:08.059Z,3.33
2018-05-04T18:54:33.819Z,3.17
2018-05-04T18:56:59.571Z,3.57
2018-05-04T18:59:25.527Z,2.70
2018-05-04T19:01:51.276Z,2.93
2018-05-04T19:04:17.031Z,3.17
2018-05-04T19:06:42.804Z,3.30
2018-05-04T19:09:08.563Z,2.80
2018-05-04T19:11:34.338Z,2.67
2018-05-04T19:14:00.088Z,3.40
2018-05-04T19:16:25.854Z,3.17
2018-05-04T19:18:51.595Z,3.10
2018-05-04T19:21:17.499Z,2.60
2018-05-04T19:23:43.268Z,3.00
2018-05-04T19:26:09.057Z,3.10
2018-05-04T19:28:34.847Z,2.80
2018-05-04T19:31:00.592Z,2.93
2018-05-04T19:33:26.403Z,2.67
2018-05-04T19:35:52.167Z,2.80
2018-05-04T19:38:17.964Z,2.53
2018-05-04T19:40:43.703Z,3.30
2018-05-04T19:43:09.473Z,2.80
2018-05-04T19:45:42.343Z,3.00
2018-05-04T19:48:08.109Z,2.33
2018-05-04T19:50:33.867Z,2.73
2018-05-04T19:52:59.679Z,3.23
2018-05-04T19:55:25.443Z,3.13
2018-05-04T19:57:51.321Z,2.70
2018-05-04T20:00:17.196Z,2.53
2018-05-04T20:02:42.952Z,2.93
2018-05-04T20:05:08.715Z,2.83
2018-05-04T20:07:34.484Z,2.37
2018-05-04T20:10:00.243Z,2.57
2018-05-04T20:12:26.055Z,2.50
2018-05-04T20:14:51.820Z,2.60
2018-05-04T20:17:17.569Z,3.07
2018-05-04T20:19:43.348Z,2.60
2018-05-04T20:22:09.183Z,2.90
2018-05-04T20:24:34.958Z,2.57
2018-05-04T20:27:00.742Z,2.13
2018-05-04T20:29:26.498Z,2.37
2018-05-04T20:31:52.287Z,2.00
2018-05-04T20:34:18.060Z,1.80
2018-05-04T20:36:43.827Z,2.30
2018-05-04T20:39:09.592Z,1.70
2018-05-04T20:41:35.350Z,2.50
2018-05-04T20:44:01.137Z,3.00
2018-05-04T20:46:41.852Z,2.03
2018-05-04T20:49:07.632Z,2.00
2018-05-04T20:51:33.416Z,2.00
2018-05-04T20:53:59.172Z,2.40
2018-05-04T20:56:24.940Z,1.90
2018-05-04T20:58:50.749Z,1.50
2018-05-04T21:01:16.556Z,1.97
2018-05-04T21:03:42.312Z,2.07
2018-05-04T21:06:08.083Z,2.17
2018-05-04T21:08:33.866Z,1.93
2018-05-04T21:10:59.634Z,2.40
2018-05-04T21:13:25.398Z,2.47
2018-05-04T21:15:51.167Z,2.50
2018-05-04T21:18:16.919Z,1.80
2018-05-04T21:20:42.704Z,1.87
2018-05-04T21:23:08.479Z,2.17
2018-05-04T21:25:34.262Z,2.20
2018-05-04T21:28:00.024Z,2.37
2018-05-04T21:30:25.803Z,1.60
2018-05-04T21:32:52.610Z,2.20
2018-05-04T21:35:18.443Z,1.85
2018-05-04T21:37:44.485Z,2.07
2018-05-04T21:40:10.264Z,2.60
2018-05-04T21:42:36.033Z,2.50
2018-05-04T21:45:01.792Z,2.30
2018-05-04T21:47:27.565Z,2.27
2018-05-04T21:49:53.305Z,2.00
2018-05-04T21:52:19.090Z,2.70
2018-05-04T21:54:44.835Z,2.27
2018-05-04T21:57:10.595Z,2.30
2018-05-04T21:59:36.371Z,2.30
2018-05-04T22:02:02.174Z,2.17
2018-05-04T22:04:27.983Z,2.20
2018-05-04T22:06:53.735Z,3.07
2018-05-04T22:09:19.576Z,2.30
2018-05-04T22:11:45.348Z,3.20
2018-05-04T22:14:11.118Z,3.13
2018-05-04T22:16:36.919Z,2.83
2018-05-04T22:19:02.718Z,2.90
2018-05-04T22:21:28.513Z,2.70
2018-05-04T22:23:54.364Z,2.50
2018-05-04T22:26:20.133Z,3.27
2018-05-04T22:28:45.887Z,2.37
2018-05-04T22:31:11.635Z,2.40
2018-05-04T22:33:37.448Z,2.13
2018-05-04T22:36:03.225Z,2.40
2018-05-04T22:38:28.984Z,1.80
2018-05-04T22:40:54.807Z,2.20
2018-05-04T22:43:20.717Z,1.83
2018-05-04T22:45:46.528Z,2.73
2018-05-04T22:51:13.063Z,3.15
2018-05-04T22:53:38.825Z,2.20
2018-05-04T22:56:04.630Z,3.10
2018-05-04T22:58:30.682Z,2.50
2018-05-04T23:00:56.464Z,2.65
2018-05-04T23:03:22.239Z,2.47
2018-05-04T23:05:48.015Z,3.30
2018-05-04T23:08:13.825Z,3.10
2018-05-04T23:10:39.592Z,2.70
2018-05-04T23:13:05.359Z,2.73
2018-05-04T23:15:31.094Z,3.00
2018-05-04T23:17:56.865Z,3.50
2018-05-04T23:20:22.608Z,3.60
2018-05-04T23:22:48.368Z,3.40
2018-05-04T23:25:14.306Z,4.00
2018-05-04T23:27:40.107Z,3.90
2018-05-04T23:30:05.868Z,3.20
2018-05-04T23:32:31.651Z,4.70
2018-05-04T23:34:57.531Z,4.80
2018-05-04T23:37:23.341Z,4.77
2018-05-04T23:39:49.118Z,5.57
2018-05-04T23:42:14.912Z,4.80
2018-05-04T23:44:40.667Z,5.00
2018-05-04T23:47:06.451Z,5.43
2018-05-04T23:49:32.359Z,5.40
2018-05-04T23:51:58.167Z,4.90
2018-05-04T23:54:23.924Z,6.20
2018-05-04T23:56:49.739Z,4.40
2018-05-04T23:59:15.535Z,4.73
